createdAt,value
2022-12-12T00:01:29.232Z,4.43
2022-12-12T00:04:31.962Z,4.53
2022-12-12T00:07:36.233Z,4.82
2022-12-12T00:10:43.617Z,3.97
2022-12-12T00:13:46.679Z,3.67
2022-12-12T00:16:49.418Z,3.30
2022-12-12T00:19:52.388Z,4.53
2022-12-12T00:22:55.257Z,4.25
2022-12-12T00:26:00.535Z,4.30
2022-12-12T00:29:05.168Z,4.32
2022-12-12T00:32:08.122Z,4.97
2022-12-12T00:35:11.193Z,4.60
2022-12-12T00:38:14.204Z,4.35
2022-12-12T00:41:17.098Z,4.40
2022-12-12T00:44:19.983Z,4.15
2022-12-12T00:47:26.174Z,4.40
2022-12-12T00:50:29.058Z,4.70
2022-12-12T00:53:31.682Z,4.10
2022-12-12T00:56:34.415Z,4.68
2022-12-12T00:59:37.405Z,4.25
2022-12-12T01:02:40.113Z,4.80
2022-12-12T01:05:43.036Z,4.30
2022-12-12T01:08:45.780Z,4.22
2022-12-12T01:11:48.524Z,4.18
2022-12-12T01:14:51.616Z,4.50
2022-12-12T01:17:54.516Z,3.97
2022-12-12T01:20:57.331Z,4.53
2022-12-12T01:24:00.199Z,4.45
2022-12-12T01:27:03.220Z,4.35
2022-12-12T01:30:07.483Z,4.18
2022-12-12T01:33:10.916Z,3.97
2022-12-12T01:36:22.671Z,3.80
2022-12-12T01:39:25.827Z,3.92
2022-12-12T01:42:28.977Z,4.47
2022-12-12T01:46:02.970Z,3.97
2022-12-12T01:49:24.804Z,4.87
2022-12-12T01:52:31.695Z,3.63
2022-12-12T01:55:37.435Z,4.35
2022-12-12T01:58:41.704Z,4.15
2022-12-12T02:01:47.924Z,4.47
2022-12-12T02:04:50.746Z,4.27
2022-12-12T02:07:54.452Z,4.27
2022-12-12T02:10:57.202Z,4.12
2022-12-12T02:13:59.969Z,4.55
2022-12-12T02:17:26.396Z,4.78
2022-12-12T02:21:16.933Z,4.77
2022-12-12T02:24:37.960Z,4.13
2022-12-12T02:27:49.507Z,4.20
2022-12-12T02:31:16.141Z,5.03
2022-12-12T02:35:03.914Z,5.20
2022-12-12T02:38:38.841Z,5.47
2022-12-12T02:41:44.161Z,5.20
2022-12-12T02:45:14.806Z,5.70
2022-12-12T02:48:20.996Z,5.00
2022-12-12T02:51:24.293Z,5.68
2022-12-12T02:54:27.174Z,5.80
2022-12-12T02:57:29.855Z,5.40
2022-12-12T03:00:37.189Z,5.05
2022-12-12T03:04:08.522Z,5.57
2022-12-12T03:07:44.516Z,5.62
2022-12-12T03:10:52.744Z,5.30
2022-12-12T03:14:20.430Z,5.27
2022-12-12T03:17:47.262Z,6.37
2022-12-12T03:21:00.332Z,4.90
2022-12-12T03:24:14.670Z,4.80
2022-12-12T03:27:27.825Z,4.53
2022-12-12T03:30:35.552Z,4.80
2022-12-12T03:33:51.138Z,4.75
2022-12-12T03:37:03.118Z,4.62
2022-12-12T03:40:14.662Z,4.85
2022-12-12T03:43:20.805Z,5.10
2022-12-12T03:46:35.221Z,4.10
2022-12-12T03:49:44.781Z,4.30
2022-12-12T03:53:00.194Z,4.60
2022-12-12T03:56:22.130Z,4.97
2022-12-12T03:59:31.150Z,5.17
2022-12-12T04:02:39.742Z,5.33
2022-12-12T04:06:14.326Z,4.62
2022-12-12T04:09:37.009Z,5.18
2022-12-12T04:13:00.933Z,5.00
2022-12-12T04:16:08.861Z,5.23
2022-12-12T04:19:35.572Z,5.20
2022-12-12T04:22:59.481Z,5.28
2022-12-12T04:26:49.784Z,5.70
2022-12-12T04:30:08.303Z,4.30
2022-12-12T04:33:13.280Z,6.40
2022-12-12T04:36:17.638Z,5.80
2022-12-12T04:39:21.021Z,5.15
2022-12-12T04:42:26.686Z,4.50
2022-12-12T04:45:34.498Z,5.12
2022-12-12T04:48:47.438Z,5.13
2022-12-12T04:51:53.870Z,5.60
2022-12-12T04:55:11.924Z,4.53
2022-12-12T04:58:15.201Z,4.37
2022-12-12T05:01:33.831Z,4.37
2022-12-12T05:05:03.700Z,4.50
2022-12-12T05:08:15.451Z,5.10
2022-12-12T05:11:22.780Z,5.10
2022-12-12T05:14:25.702Z,4.55
2022-12-12T05:17:31.649Z,4.97
2022-12-12T05:20:35.215Z,4.87
2022-12-12T05:23:38.375Z,4.27
2022-12-12T05:26:41.649Z,4.68
2022-12-12T05:29:44.529Z,5.07
2022-12-12T05:32:47.395Z,5.32
2022-12-12T05:35:50.166Z,5.23
2022-12-12T05:38:52.998Z,6.10
2022-12-12T05:41:55.856Z,5.22
2022-12-12T05:44:58.707Z,5.55
2022-12-12T05:48:01.556Z,4.68
2022-12-12T05:51:05.030Z,5.03
2022-12-12T05:54:07.714Z,5.60
2022-12-12T05:57:10.561Z,5.25
2022-12-12T06:00:13.820Z,5.97
2022-12-12T06:03:17.290Z,4.87
2022-12-12T06:06:20.165Z,4.10
2022-12-12T06:09:23.298Z,5.23
2022-12-12T06:12:26.324Z,4.72
2022-12-12T06:15:29.492Z,4.75
2022-12-12T06:18:32.365Z,4.87
2022-12-12T06:21:50.541Z,4.97
2022-12-12T06:24:53.469Z,4.87
2022-12-12T06:27:56.358Z,5.12
2022-12-12T06:30:59.618Z,5.40
2022-12-12T06:34:02.621Z,4.82
2022-12-12T06:37:17.042Z,6.23
2022-12-12T06:40:20.633Z,4.73
2022-12-12T06:43:23.519Z,4.97
2022-12-12T06:46:28.252Z,4.78
2022-12-12T06:49:31.254Z,4.45
2022-12-12T06:52:34.126Z,4.30
2022-12-12T06:55:44.405Z,5.17
2022-12-12T06:58:49.654Z,4.53
2022-12-12T07:01:56.446Z,4.85
2022-12-12T07:04:59.332Z,3.83
2022-12-12T07:08:03.299Z,4.73
2022-12-12T07:11:12.211Z,4.90
2022-12-12T07:14:18.291Z,5.25
2022-12-12T07:17:21.088Z,4.62
2022-12-12T07:20:24.193Z,4.80
2022-12-12T07:23:28.111Z,5.23
2022-12-12T07:26:31.262Z,4.63
2022-12-12T07:29:34.980Z,4.75
2022-12-12T07:32:38.119Z,4.05
2022-12-12T07:35:41.987Z,4.82
2022-12-12T07:38:44.903Z,4.57
2022-12-12T07:41:47.903Z,4.73
2022-12-12T07:44:50.908Z,4.12
2022-12-12T07:47:54.278Z,4.57
2022-12-12T07:51:00.713Z,5.03
2022-12-12T07:54:04.142Z,4.70
2022-12-12T07:57:07.301Z,4.40
2022-12-12T08:00:15.135Z,4.78
2022-12-12T08:03:21.732Z,4.70
2022-12-12T08:06:25.493Z,4.25
2022-12-12T08:09:28.318Z,3.70
2022-12-12T08:12:32.348Z,4.30
2022-12-12T08:15:35.387Z,4.20
2022-12-12T08:18:38.559Z,3.72
2022-12-12T08:21:42.671Z,3.72
2022-12-12T08:24:45.617Z,4.43
2022-12-12T08:27:48.711Z,4.53
2022-12-12T08:30:52.075Z,4.43
2022-12-12T08:33:55.577Z,3.60
2022-12-12T08:36:58.373Z,4.95
2022-12-12T08:40:01.209Z,3.67
2022-12-12T08:43:04.168Z,4.33
2022-12-12T08:46:12.313Z,4.40
2022-12-12T08:49:18.602Z,3.60
2022-12-12T08:52:21.679Z,3.30
2022-12-12T08:55:24.388Z,4.10
2022-12-12T08:58:27.253Z,4.07
2022-12-12T09:01:30.198Z,3.37
2022-12-12T09:04:35.687Z,3.55
2022-12-12T09:07:38.928Z,3.62
2022-12-12T09:10:42.714Z,4.30
2022-12-12T09:13:45.684Z,4.43
2022-12-12T09:16:48.407Z,3.95
2022-12-12T09:19:51.297Z,3.85
2022-12-12T09:22:54.209Z,3.33
2022-12-12T09:25:57.202Z,2.97
2022-12-12T09:29:00.080Z,3.87
2022-12-12T09:32:06.712Z,3.47
2022-12-12T09:35:09.740Z,3.62
2022-12-12T09:38:14.883Z,4.05
2022-12-12T09:41:20.214Z,3.23
2022-12-12T09:44:24.154Z,3.90
2022-12-12T09:47:40.272Z,4.15
2022-12-12T09:50:48.644Z,4.07
2022-12-12T09:53:51.932Z,4.35
2022-12-12T09:57:12.591Z,4.03
2022-12-12T10:00:17.028Z,3.07
2022-12-12T10:03:45.703Z,3.70
2022-12-12T10:06:55.706Z,3.75
2022-12-12T10:10:09.407Z,3.53
2022-12-12T10:13:25.327Z,3.73
2022-12-12T10:16:31.374Z,3.87
2022-12-12T10:19:42.892Z,3.75
2022-12-12T10:23:08.679Z,4.15
2022-12-12T10:26:16.866Z,3.17
2022-12-12T10:29:21.985Z,3.27
2022-12-12T10:32:40.411Z,4.40
2022-12-12T10:35:57.249Z,3.95
2022-12-12T10:39:09.485Z,3.75
2022-12-12T10:42:18.144Z,3.50
2022-12-12T10:45:30.944Z,3.30
2022-12-12T10:48:34.451Z,3.93
2022-12-12T10:51:37.439Z,3.17
2022-12-12T10:54:45.746Z,4.55
2022-12-12T10:57:49.666Z,4.25
2022-12-12T11:01:05.045Z,3.53
2022-12-12T11:04:09.092Z,4.40
2022-12-12T11:07:20.568Z,4.50
2022-12-12T11:10:23.350Z,5.32
2022-12-12T11:13:27.138Z,4.97
2022-12-12T11:16:31.307Z,5.07
2022-12-12T11:19:39.585Z,4.53
2022-12-12T11:22:42.560Z,4.12
2022-12-12T11:25:45.522Z,4.65
2022-12-12T11:29:01.584Z,4.78
2022-12-12T11:32:05.001Z,5.27
2022-12-12T11:35:23.596Z,4.60
2022-12-12T11:38:39.062Z,4.82
2022-12-12T11:42:13.917Z,4.70
2022-12-12T11:45:16.742Z,3.80
2022-12-12T11:48:42.598Z,3.50
2022-12-12T11:51:45.276Z,3.00
2022-12-12T11:54:49.300Z,3.30
2022-12-12T11:58:04.251Z,3.78
2022-12-12T12:01:25.599Z,3.47
2022-12-12T12:04:39.526Z,4.00
2022-12-12T12:07:42.895Z,3.23
2022-12-12T12:11:05.084Z,3.37
2022-12-12T12:14:17.525Z,3.33
2022-12-12T12:17:41.488Z,2.58
2022-12-12T12:20:53.968Z,3.47
2022-12-12T12:24:03.097Z,3.90
2022-12-12T12:27:31.656Z,3.67
2022-12-12T12:31:00.453Z,3.25
2022-12-12T12:34:23.012Z,3.62
2022-12-12T12:38:01.423Z,3.13
2022-12-12T12:41:20.084Z,3.20
2022-12-12T12:44:23.063Z,3.08
2022-12-12T12:47:28.164Z,3.70
2022-12-12T12:51:10.616Z,3.55
2022-12-12T12:54:14.472Z,4.20
2022-12-12T12:57:39.591Z,3.87
2022-12-12T13:00:43.138Z,3.50
2022-12-12T13:04:08.867Z,3.85
2022-12-12T13:07:42.612Z,4.00
2022-12-12T13:10:52.676Z,3.93
2022-12-12T13:13:59.617Z,2.50
2022-12-12T13:17:06.970Z,2.85
2022-12-12T13:20:18.578Z,3.35
2022-12-12T13:23:49.435Z,2.85
2022-12-12T13:27:01.469Z,3.57
2022-12-12T13:30:10.453Z,3.47
2022-12-12T13:33:33.988Z,3.35
2022-12-12T13:36:42.245Z,3.10
2022-12-12T13:39:45.381Z,2.87
2022-12-12T13:43:09.691Z,3.97
2022-12-12T13:46:22.391Z,3.07
2022-12-12T13:49:29.790Z,3.42
2022-12-12T13:52:43.588Z,3.33
2022-12-12T13:55:46.786Z,3.60
2022-12-12T13:58:50.593Z,3.30
2022-12-12T14:02:26.750Z,3.50
2022-12-12T14:05:35.930Z,3.78
2022-12-12T14:08:49.921Z,4.15
2022-12-12T14:11:52.834Z,3.80
2022-12-12T14:15:00.179Z,4.23
2022-12-12T14:18:03.304Z,3.60
2022-12-12T14:21:13.017Z,3.80
2022-12-12T14:24:34.223Z,4.12
2022-12-12T14:27:51.966Z,3.60
2022-12-12T14:31:14.583Z,4.37
2022-12-12T14:34:27.453Z,4.30
2022-12-12T14:37:39.034Z,3.70
2022-12-12T14:40:46.454Z,3.90
2022-12-12T14:44:35.569Z,4.05
2022-12-12T14:47:17.738Z,4.03
2022-12-12T14:50:20.609Z,4.03
2022-12-12T14:53:32.427Z,4.20
2022-12-12T14:56:40.563Z,3.55
2022-12-12T14:59:43.644Z,3.87
2022-12-12T15:02:51.256Z,3.67
2022-12-12T15:06:29.774Z,3.77
2022-12-12T15:09:38.973Z,2.75
2022-12-12T15:12:44.535Z,3.35
2022-12-12T15:15:49.996Z,3.85
2022-12-12T15:18:53.832Z,3.73
2022-12-12T15:21:58.432Z,3.80
2022-12-12T15:25:05.308Z,3.87
2022-12-12T15:28:15.277Z,3.62
2022-12-12T15:31:22.658Z,3.70
2022-12-12T15:34:41.303Z,3.57
2022-12-12T15:38:02.614Z,3.73
2022-12-12T15:44:19.645Z,3.60
2022-12-12T15:47:22.631Z,3.85
2022-12-12T15:50:30.487Z,4.20
2022-12-12T15:53:36.610Z,4.10
2022-12-12T15:56:40.008Z,3.78
2022-12-12T15:59:43.608Z,3.50
2022-12-12T16:03:19.141Z,3.70
2022-12-12T16:06:25.047Z,3.47
2022-12-12T16:09:27.817Z,3.60
2022-12-12T16:13:00.402Z,4.28
2022-12-12T16:16:33.625Z,4.18
2022-12-12T16:19:42.649Z,4.65
2022-12-12T16:22:48.556Z,4.37
2022-12-12T16:25:51.220Z,4.50
2022-12-12T16:28:54.371Z,4.57
2022-12-12T16:31:57.721Z,4.70
2022-12-12T16:35:00.934Z,5.18
2022-12-12T16:38:15.582Z,4.27
2022-12-12T16:41:19.426Z,4.33
2022-12-12T16:44:22.170Z,4.82
2022-12-12T16:47:25.458Z,5.45
2022-12-12T16:50:29.044Z,4.47
2022-12-12T16:53:35.001Z,4.53
2022-12-12T16:56:38.555Z,5.13
2022-12-12T16:59:41.667Z,4.93
2022-12-12T17:02:45.000Z,5.40
2022-12-12T17:05:49.051Z,5.18
2022-12-12T17:08:52.668Z,5.30
2022-12-12T17:11:55.737Z,5.67
2022-12-12T17:14:58.546Z,6.00
2022-12-12T17:18:01.817Z,6.12
2022-12-12T17:21:06.281Z,5.82
2022-12-12T17:24:10.590Z,6.27
2022-12-12T17:27:13.266Z,7.33
2022-12-12T17:30:16.783Z,6.18
2022-12-12T17:33:22.266Z,7.03
2022-12-12T17:36:24.945Z,6.40
2022-12-12T17:39:27.661Z,6.10
2022-12-12T17:42:32.138Z,5.90
2022-12-12T17:45:34.963Z,6.25
2022-12-12T17:48:38.060Z,6.60
2022-12-12T17:51:41.082Z,6.28
2022-12-12T17:54:44.140Z,6.87
2022-12-12T17:58:07.102Z,6.73
2022-12-12T18:01:14.552Z,6.82
2022-12-12T18:04:17.429Z,6.85
2022-12-12T18:07:20.460Z,6.53
2022-12-12T18:10:28.029Z,7.30
2022-12-12T18:13:34.114Z,7.50
2022-12-12T18:16:36.988Z,34.78
2022-12-12T18:19:39.866Z,41.17
2022-12-12T18:22:42.886Z,13.25
2022-12-12T18:25:46.101Z,6.30
2022-12-12T18:28:51.142Z,11.30
2022-12-12T18:31:54.247Z,8.05
2022-12-12T18:34:58.653Z,8.07
2022-12-12T18:38:01.604Z,6.78
2022-12-12T18:41:05.558Z,7.97
2022-12-12T18:44:11.187Z,6.40
2022-12-12T18:47:14.078Z,5.20
2022-12-12T18:50:20.104Z,6.93
2022-12-12T18:53:23.022Z,6.82
2022-12-12T18:56:28.483Z,6.20
2022-12-12T18:59:32.183Z,5.80
2022-12-12T19:02:38.640Z,6.43
2022-12-12T19:05:43.145Z,7.50
2022-12-12T19:08:46.388Z,8.70
2022-12-12T19:11:52.400Z,5.53
2022-12-12T19:18:21.144Z,5.30
2022-12-12T19:21:25.599Z,6.57
2022-12-12T19:24:28.837Z,5.53
2022-12-12T19:27:31.879Z,6.33
2022-12-12T19:30:41.716Z,5.87
2022-12-12T19:33:46.639Z,6.28
2022-12-12T19:36:49.676Z,8.05
2022-12-12T19:39:53.359Z,15.88
2022-12-12T19:42:56.790Z,7.53
2022-12-12T19:46:11.948Z,6.83
2022-12-12T19:49:16.591Z,6.25
2022-12-12T19:52:20.025Z,6.37
2022-12-12T19:55:23.482Z,6.57
2022-12-12T19:58:27.157Z,5.97
2022-12-12T20:01:33.735Z,5.30
2022-12-12T20:04:41.206Z,6.28
2022-12-12T20:07:45.370Z,7.60
2022-12-12T20:10:49.815Z,6.93
2022-12-12T20:13:55.221Z,7.50
2022-12-12T20:16:58.837Z,5.23
2022-12-12T20:20:02.768Z,6.00
2022-12-12T20:23:06.025Z,5.90
2022-12-12T20:26:21.337Z,6.07
2022-12-12T20:29:25.049Z,5.77
2022-12-12T20:32:29.798Z,6.37
2022-12-12T20:35:36.069Z,5.95
2022-12-12T20:38:40.200Z,6.00
2022-12-12T20:41:44.318Z,5.43
2022-12-12T20:44:49.292Z,5.23
2022-12-12T20:47:52.335Z,5.07
2022-12-12T20:50:59.859Z,5.45
2022-12-12T20:54:05.456Z,5.45
2022-12-12T20:57:08.405Z,10.45
2022-12-12T21:00:13.692Z,5.13
2022-12-12T21:03:18.893Z,4.60
2022-12-12T21:06:24.504Z,4.68
2022-12-12T21:09:27.447Z,5.20
2022-12-12T21:12:30.568Z,5.50
2022-12-12T21:15:33.443Z,4.80
2022-12-12T21:18:36.521Z,8.50
2022-12-12T21:21:40.815Z,7.50
2022-12-12T21:24:43.535Z,5.53
2022-12-12T21:27:46.310Z,5.87
2022-12-12T21:30:53.179Z,4.90
2022-12-12T21:33:56.319Z,8.17
2022-12-12T21:37:02.959Z,7.43
2022-12-12T21:40:06.553Z,5.22
2022-12-12T21:43:12.348Z,5.20
2022-12-12T21:46:26.065Z,4.67
2022-12-12T21:49:30.734Z,5.13
2022-12-12T21:52:36.408Z,4.85
2022-12-12T21:55:43.755Z,6.00
2022-12-12T21:58:46.808Z,5.53
2022-12-12T22:01:49.621Z,4.90
2022-12-12T22:04:52.334Z,5.93
2022-12-12T22:07:55.076Z,5.75
2022-12-12T22:10:59.873Z,4.82
2022-12-12T22:14:02.957Z,5.40
2022-12-12T22:17:06.076Z,4.73
2022-12-12T22:20:09.765Z,4.40
2022-12-12T22:23:13.318Z,4.87
2022-12-12T22:26:21.322Z,5.70
2022-12-12T22:29:24.513Z,5.40
2022-12-12T22:32:29.119Z,4.17
2022-12-12T22:35:31.882Z,3.70
2022-12-12T22:38:38.223Z,4.93
2022-12-12T22:41:59.207Z,3.75
2022-12-12T22:45:06.513Z,3.67
2022-12-12T22:48:12.147Z,4.40
2022-12-12T22:51:20.349Z,3.77
2022-12-12T22:54:23.158Z,4.25
2022-12-12T22:57:29.258Z,4.07
2022-12-12T23:00:32.403Z,3.97
2022-12-12T23:03:35.236Z,3.27
2022-12-12T23:06:38.038Z,3.47
2022-12-12T23:09:52.570Z,3.83
2022-12-12T23:12:55.318Z,3.60
2022-12-12T23:15:57.993Z,3.67
2022-12-12T23:19:00.851Z,4.10
2022-12-12T23:22:03.660Z,4.30
2022-12-12T23:25:07.534Z,4.30
2022-12-12T23:28:13.860Z,3.97
2022-12-12T23:31:28.743Z,4.15
2022-12-12T23:34:33.038Z,3.83
2022-12-12T23:37:35.774Z,3.90
2022-12-12T23:40:39.609Z,3.92
2022-12-12T23:43:43.699Z,3.42
2022-12-12T23:46:46.469Z,3.62
2022-12-12T23:49:49.211Z,3.40
2022-12-12T23:52:51.910Z,3.63
2022-12-12T23:55:54.628Z,4.12
2022-12-12T23:58:58.728Z,3.37
